Time;durP1;ratioP1;P1;durP2;ratioP2;P2;SDS_P1;SDS_P2;PMS_P1;PMS_P2;Temp;Humidity;BMP_temperature;BMP_pressure;BME280_temperature;BME280_humidity;BME280_pressure;Samples;Min_cycle;Max_cycle;Signal;HPM_P1;HPM_P2
2021/03/19 00:00:37;;;;;;;39.97;25.80;;;103.10;2227.20;;;;;;5034271;28;20021;-68
2021/03/19 00:03:02;;;;;;;43.27;26.67;;;103.10;2227.20;;;;;;5034485;28;20021;-72
2021/03/19 00:05:29;;;;;;;41.97;26.27;;;103.10;2227.20;;;;;;5033916;28;20079;-68
2021/03/19 00:07:57;;;;;;;40.37;27.53;;;103.20;2227.20;;;;;;5032941;28;20470;-70
2021/03/19 00:10:29;;;;;;;43.47;28.97;;;103.10;2227.20;;;;;;5033865;28;20363;-72
2021/03/19 00:12:57;;;;;;;44.30;29.10;;;103.10;2227.20;;;;;;5033902;28;20017;-71
2021/03/19 00:15:25;;;;;;;47.17;30.17;;;103.10;2227.20;;;;;;5030890;28;20028;-72
2021/03/19 00:17:52;;;;;;;46.57;29.13;;;103.10;2227.20;;;;;;5040713;28;20060;-67
2021/03/19 00:20:19;;;;;;;43.23;27.97;;;103.10;2227.20;;;;;;5053718;28;20053;-67
2021/03/19 00:22:45;;;;;;;49.03;27.07;;;103.10;2227.20;;;;;;5053790;28;20024;-67
2021/03/19 00:25:12;;;;;;;43.27;27.23;;;103.10;2227.20;;;;;;5053444;28;20044;-73
2021/03/19 00:27:38;;;;;;;43.67;28.80;;;103.20;2227.20;;;;;;5054540;28;20032;-72
2021/03/19 00:30:07;;;;;;;42.37;27.47;;;103.20;2227.20;;;;;;5056905;28;20025;-74
2021/03/19 00:32:33;;;;;;;45.30;27.40;;;103.20;2227.20;;;;;;5047352;28;20036;-74
2021/03/19 00:34:59;;;;;;;43.77;29.30;;;103.30;2227.20;;;;;;5036183;28;20029;-74
2021/03/19 00:37:25;;;;;;;42.90;27.80;;;103.30;2227.20;;;;;;5033178;28;20628;-74
2021/03/19 00:39:51;;;;;;;43.40;27.97;;;128.00;2252.80;;;;;;5033387;28;20029;-73
2021/03/19 00:42:16;;;;;;;44.87;26.93;;;128.00;2252.80;;;;;;5033473;28;20097;-68
2021/03/19 00:44:42;;;;;;;45.70;28.73;;;128.00;2252.80;;;;;;5031793;28;20044;-70
2021/03/19 00:47:09;;;;;;;44.30;27.20;;;128.10;2252.80;;;;;;5031622;28;20072;-72
2021/03/19 00:49:35;;;;;;;46.38;28.35;;;128.10;2252.80;;;;;;5033205;28;20425;-68
2021/03/19 00:52:02;;;;;;;43.87;26.83;;;128.10;2252.80;;;;;;5033423;28;20017;-68
2021/03/19 00:54:28;;;;;;;47.73;28.60;;;128.10;2252.80;;;;;;5032925;28;20390;-68
2021/03/19 00:56:54;;;;;;;45.90;28.20;;;128.10;2252.80;;;;;;5033306;28;20017;-70
2021/03/19 00:59:20;;;;;;;37.73;26.33;;;128.20;2252.80;;;;;;5033031;28;20026;-68
2021/03/19 01:01:46;;;;;;;49.00;28.70;;;128.20;2252.80;;;;;;5033253;28;20095;-73
2021/03/19 01:04:12;;;;;;;47.10;29.23;;;128.20;2252.80;;;;;;5032933;28;20021;-72
2021/03/19 01:06:38;;;;;;;48.07;27.17;;;128.20;2252.80;;;;;;5032988;28;20036;-69
2021/03/19 01:09:05;;;;;;;41.10;26.63;;;128.30;2252.80;;;;;;5052659;28;20108;-70
2021/03/19 01:11:31;;;;;;;42.97;26.73;;;128.30;2252.80;;;;;;5052950;28;20052;-73
2021/03/19 01:13:57;;;;;;;42.20;26.93;;;128.20;2252.80;;;;;;5052735;28;20026;-68
2021/03/19 01:16:23;;;;;;;40.30;27.17;;;128.30;2227.20;;;;;;5052684;28;20017;-72
2021/03/19 01:18:49;;;;;;;45.60;30.23;;;128.20;2252.80;;;;;;5052809;28;20531;-69
2021/03/19 01:21:16;;;;;;;43.17;28.30;;;128.20;2252.80;;;;;;5052552;28;20032;-70
2021/03/19 01:23:43;;;;;;;72.40;45.07;;;128.20;2252.80;;;;;;5051963;28;20029;-71
2021/03/19 01:26:16;;;;;;;54.77;35.67;;;128.20;2252.80;;;;;;5050617;28;20052;-69
2021/03/19 01:28:43;;;;;;;69.73;41.70;;;128.10;2252.80;;;;;;5050835;28;20033;-69
2021/03/19 01:31:09;;;;;;;62.10;38.27;;;128.10;2252.80;;;;;;5051002;28;20063;-69
2021/03/19 01:33:36;;;;;;;64.73;38.67;;;128.10;2252.80;;;;;;5049536;28;20444;-69
2021/03/19 01:36:06;;;;;;;53.13;35.57;;;128.10;2252.80;;;;;;5051329;28;20025;-68
2021/03/19 01:38:37;;;;;;;51.47;30.17;;;128.10;2252.80;;;;;;5051454;28;20548;-68
2021/03/19 01:41:04;;;;;;;45.90;29.83;;;128.10;2252.80;;;;;;5052985;28;20414;-69
2021/03/19 01:44:06;;;;;;;60.50;38.93;;;128.10;2252.80;;;;;;5052312;28;20485;-68
2021/03/19 01:47:10;;;;;;;45.70;30.83;;;128.00;2252.80;;;;;;5039837;28;20092;-69
2021/03/19 01:50:14;;;;;;;58.80;39.63;;;128.00;2252.80;;;;;;5012442;28;20118;-68
2021/03/19 01:52:59;;;;;;;;;;;103.30;2227.20;;;;;;5013197;28;20117;-68
2021/03/19 01:56:02;;;;;;;48.00;33.63;;;103.30;2227.20;;;;;;5012147;28;19905;-71
2021/03/19 01:59:05;;;;;;;57.47;37.27;;;103.30;2227.20;;;;;;5012506;28;20072;-72
2021/03/19 02:02:08;;;;;;;58.00;37.23;;;103.30;2227.20;;;;;;5012649;28;20548;-72
2021/03/19 02:05:11;;;;;;;66.97;39.97;;;103.30;2227.20;;;;;;5012227;28;20127;-69
2021/03/19 02:08:14;;;;;;;51.03;33.10;;;103.30;2227.20;;;;;;5012548;28;20419;-69
2021/03/19 02:11:17;;;;;;;46.43;30.60;;;128.00;2252.80;;;;;;5012268;28;20101;-73
2021/03/19 02:14:20;;;;;;;42.30;28.93;;;103.30;2227.20;;;;;;5012617;28;20026;-68
2021/03/19 02:17:23;;;;;;;40.50;28.50;;;103.10;2227.20;;;;;;5011936;28;20044;-69
2021/03/19 02:20:26;;;;;;;42.43;28.80;;;103.10;2227.20;;;;;;5012424;28;20022;-69
2021/03/19 02:23:29;;;;;;;47.03;34.00;;;103.10;2227.20;;;;;;5012261;28;20025;-73
2021/03/19 02:26:32;;;;;;;43.40;29.50;;;103.10;2227.20;;;;;;5012285;28;20499;-69
2021/03/19 02:29:35;;;;;;;38.67;26.83;;;103.20;2227.20;;;;;;5012033;28;20105;-70
2021/03/19 02:32:11;;;;;;;45.33;28.73;;;103.20;2227.20;;;;;;5012222;28;20109;-70
2021/03/19 02:34:45;;;;;;;38.27;26.50;;;103.30;2227.20;;;;;;5012348;28;20109;-70
2021/03/19 02:37:15;;;;;;;39.47;26.13;;;103.20;2227.20;;;;;;5012284;28;20033;-69
2021/03/19 02:39:41;;;;;;;50.10;32.77;;;103.30;2227.20;;;;;;5010967;28;20029;-72
2021/03/19 02:42:09;;;;;;;48.07;32.40;;;128.00;2252.80;;;;;;5012539;28;20109;-73
2021/03/19 02:44:35;;;;;;;45.87;29.93;;;128.00;2252.80;;;;;;5012155;28;20129;-68
2021/03/19 02:47:03;;;;;;;44.93;28.90;;;128.10;2252.80;;;;;;5011912;28;20107;-68
2021/03/19 02:49:29;;;;;;;72.87;40.47;;;128.00;2252.80;;;;;;5011866;28;20083;-69
2021/03/19 02:51:56;;;;;;;72.70;42.70;;;128.00;2252.80;;;;;;5012116;28;20022;-72
2021/03/19 02:54:23;;;;;;;54.83;35.07;;;128.10;2252.80;;;;;;5011971;28;20026;-71
2021/03/19 02:56:49;;;;;;;50.20;33.27;;;128.10;2252.80;;;;;;5012120;28;20379;-69
2021/03/19 02:59:16;;;;;;;42.30;29.83;;;128.00;2252.80;;;;;;5013322;28;20598;-69
2021/03/19 03:01:42;;;;;;;40.97;29.17;;;128.20;2252.80;;;;;;5015858;28;20391;-69
2021/03/19 03:04:07;;;;;;;40.47;28.30;;;128.10;2252.80;;;;;;5015968;28;20025;-73
2021/03/19 03:06:43;;;;;;;44.47;28.97;;;103.30;2227.20;;;;;;5015457;28;20535;-73
2021/03/19 03:09:12;;;;;;;42.53;29.93;;;128.10;2252.80;;;;;;5015829;28;20046;-70
2021/03/19 03:11:39;;;;;;;43.00;30.33;;;128.10;2252.80;;;;;;5015449;28;20378;-70
2021/03/19 03:14:07;;;;;;;46.57;32.10;;;128.10;2252.80;;;;;;5015836;28;20064;-74
2021/03/19 03:16:34;;;;;;;43.40;30.40;;;128.10;2252.80;;;;;;5015129;28;20037;-72
2021/03/19 03:19:00;;;;;;;39.43;28.00;;;128.10;2252.80;;;;;;5014226;28;20482;-73
2021/03/19 03:21:25;;;;;;;37.93;27.60;;;128.20;2252.80;;;;;;5015365;28;20105;-68
2021/03/19 03:23:51;;;;;;;40.17;28.13;;;128.20;2252.80;;;;;;5015305;28;20034;-69
2021/03/19 03:26:21;;;;;;;41.97;28.63;;;128.20;2252.80;;;;;;5015487;28;20054;-69
2021/03/19 03:28:46;;;;;;;37.50;26.57;;;128.10;2252.80;;;;;;5015256;28;20129;-74
2021/03/19 03:31:12;;;;;;;38.53;26.73;;;128.10;2252.80;;;;;;5015346;28;20048;-70
2021/03/19 03:33:38;;;;;;;40.93;28.90;;;128.10;2252.80;;;;;;5013839;28;20033;-69
2021/03/19 03:36:05;;;;;;;41.83;28.47;;;128.00;2252.80;;;;;;5015138;28;20060;-68
2021/03/19 03:38:31;;;;;;;42.33;31.17;;;128.00;2252.80;;;;;;5015267;28;20037;-68
2021/03/19 03:41:14;;;;;;;43.20;31.37;;;128.00;2252.80;;;;;;5015193;28;20026;-68
2021/03/19 03:43:39;;;;;;;46.17;32.60;;;128.00;2252.80;;;;;;5014866;28;20022;-73
2021/03/19 03:46:08;;;;;;;42.20;29.87;;;103.30;2227.20;;;;;;5014625;28;20079;-73
2021/03/19 03:48:34;;;;;;;42.45;29.73;;;103.30;2227.20;;;;;;5014665;28;20026;-68
2021/03/19 03:51:04;;;;;;;38.03;28.50;;;103.30;2227.20;;;;;;5014813;28;20101;-68
2021/03/19 03:53:30;;;;;;;42.30;28.73;;;103.30;2227.20;;;;;;5015102;28;20049;-72
2021/03/19 03:55:56;;;;;;;44.77;29.87;;;128.00;2252.80;;;;;;5014634;28;20483;-72
2021/03/19 03:58:22;;;;;;;41.10;27.23;;;103.30;2227.20;;;;;;5015041;28;20056;-69
2021/03/19 04:00:48;;;;;;;40.67;27.33;;;103.30;2227.20;;;;;;5014564;28;20026;-69
2021/03/19 04:03:14;;;;;;;38.27;26.50;;;128.00;2252.80;;;;;;5014642;28;20379;-68
2021/03/19 04:05:47;;;;;;;39.30;27.77;;;128.00;2252.80;;;;;;5014542;28;20041;-69
2021/03/19 04:08:17;;;;;;;37.13;25.33;;;128.00;2252.80;;;;;;5014414;28;20034;-69
2021/03/19 04:10:44;;;;;;;41.40;27.47;;;128.00;2252.80;;;;;;5013468;28;20252;-71
2021/03/19 04:13:11;;;;;;;39.53;25.90;;;128.10;2252.80;;;;;;5014649;28;20425;-73
2021/03/19 04:15:38;;;;;;;38.30;26.43;;;128.10;2252.80;;;;;;5013317;28;20053;-71
2021/03/19 04:18:08;;;;;;;36.83;25.73;;;128.20;2252.80;;;;;;5014059;28;20033;-68
2021/03/19 04:20:35;;;;;;;37.20;25.80;;;128.10;2252.80;;;;;;5014807;28;20049;-72
2021/03/19 04:23:01;;;;;;;35.30;25.57;;;128.10;2252.80;;;;;;5014038;28;20022;-68
2021/03/19 04:25:27;;;;;;;37.70;28.07;;;128.10;2252.80;;;;;;5014379;28;20102;-69
2021/03/19 04:27:56;;;;;;;41.57;29.97;;;128.10;2252.80;;;;;;5014010;28;20109;-68
2021/03/19 04:30:28;;;;;;;41.73;29.63;;;128.00;2252.80;;;;;;5014023;28;20109;-72
2021/03/19 04:32:54;;;;;;;38.85;27.95;;;128.00;2252.80;;;;;;5013967;28;20022;-73
2021/03/19 04:35:25;;;;;;;45.33;31.05;;;128.00;2252.80;;;;;;5014062;28;20033;-68
2021/03/19 04:37:53;;;;;;;55.83;34.83;;;128.00;2252.80;;;;;;5014152;28;20065;-69
2021/03/19 04:40:20;;;;;;;65.57;39.60;;;128.00;2252.80;;;;;;5013780;28;20053;-68
2021/03/19 04:42:47;;;;;;;70.07;42.60;;;128.00;2252.80;;;;;;5014162;28;20032;-68
2021/03/19 04:45:13;;;;;;;62.43;38.67;;;128.00;2252.80;;;;;;5013622;28;20096;-74
2021/03/19 04:47:39;;;;;;;54.67;37.23;;;128.00;2252.80;;;;;;5013614;28;20041;-69
2021/03/19 04:50:08;;;;;;;47.83;33.20;;;128.00;2252.80;;;;;;5013680;28;20033;-70
2021/03/19 04:52:33;;;;;;;50.40;33.17;;;128.10;2252.80;;;;;;5014001;28;20026;-70
2021/03/19 04:55:02;;;;;;;44.60;31.10;;;128.10;2252.80;;;;;;5013717;28;20034;-73
2021/03/19 04:57:29;;;;;;;45.15;29.45;;;128.10;2252.80;;;;;;5013613;28;20030;-70
2021/03/19 04:59:55;;;;;;;40.97;29.27;;;128.10;2252.80;;;;;;5013752;28;20072;-69
2021/03/19 05:02:42;;;;;;;45.27;29.97;;;128.10;2252.80;;;;;;5013417;28;20058;-73
2021/03/19 05:05:12;;;;;;;43.43;29.17;;;128.20;2252.80;;;;;;5013821;28;20466;-73
2021/03/19 05:07:38;;;;;;;47.97;32.57;;;128.20;2252.80;;;;;;5012963;28;20018;-71
2021/03/19 05:10:05;;;;;;;51.10;32.72;;;128.20;2252.80;;;;;;5012330;28;20029;-72
2021/03/19 05:12:31;;;;;;;49.63;33.85;;;128.20;2252.80;;;;;;5013090;28;20053;-68
2021/03/19 05:15:00;;;;;;;58.03;36.80;;;128.30;2252.80;;;;;;5013423;28;20022;-69
2021/03/19 05:17:26;;;;;;;53.90;34.10;;;128.20;2252.80;;;;;;5013102;28;20105;-68
2021/03/19 05:19:52;;;;;;;56.23;35.70;;;128.20;2252.80;;;;;;5013108;28;20493;-70
2021/03/19 05:22:18;;;;;;;59.13;37.20;;;128.30;2252.80;;;;;;5012922;28;20026;-72
2021/03/19 05:24:44;;;;;;;60.30;36.87;;;128.10;2252.80;;;;;;5011792;28;20022;-71
2021/03/19 05:27:10;;;;;;;82.23;45.90;;;128.00;2252.80;;;;;;5013530;28;20081;-68
2021/03/19 05:29:36;;;;;;;62.75;38.03;;;128.00;2252.80;;;;;;5012917;28;20076;-71
2021/03/19 05:32:02;;;;;;;41.60;28.77;;;128.00;2252.80;;;;;;5013202;28;20394;-69
2021/03/19 05:34:28;;;;;;;43.77;28.77;;;128.00;2252.80;;;;;;5012836;28;20025;-71
2021/03/19 05:36:53;;;;;;;42.97;30.53;;;128.00;2252.80;;;;;;5013093;28;20022;-68
2021/03/19 05:39:19;;;;;;;53.90;35.13;;;103.30;2227.20;;;;;;5012491;28;20440;-69
2021/03/19 05:41:45;;;;;;;50.37;33.63;;;103.30;2227.20;;;;;;5012972;28;20026;-72
2021/03/19 05:44:17;;;;;;;42.37;29.40;;;128.00;2252.80;;;;;;5012711;28;20030;-70
2021/03/19 05:46:55;;;;;;;54.53;35.97;;;128.00;2252.80;;;;;;5012401;28;20041;-70
2021/03/19 05:49:30;;;;;;;57.60;38.03;;;128.10;2252.80;;;;;;5012680;28;20042;-71
2021/03/19 05:51:59;;;;;;;59.00;38.63;;;103.30;2227.20;;;;;;5012633;28;20072;-69
2021/03/19 05:54:36;;;;;;;53.17;34.67;;;128.00;2252.80;;;;;;5012817;28;20352;-71
2021/03/19 05:57:07;;;;;;;70.18;39.90;;;128.00;2252.80;;;;;;5012524;28;20164;-73
2021/03/19 05:59:53;;;;;;;82.75;46.00;;;103.30;2227.20;;;;;;5012759;28;20022;-69
2021/03/19 06:02:32;;;;;;;94.37;50.97;;;128.00;2252.80;;;;;;5012267;28;20753;-69
2021/03/19 06:05:03;;;;;;;87.80;47.57;;;103.30;2227.20;;;;;;5012840;28;20030;-71
2021/03/19 06:07:42;;;;;;;66.40;39.77;;;103.30;2227.20;;;;;;5012320;28;20029;-73
2021/03/19 06:10:21;;;;;;;74.67;44.90;;;103.20;2227.20;;;;;;5012456;28;20073;-69
2021/03/19 06:12:50;;;;;;;68.83;43.07;;;103.20;2227.20;;;;;;5012386;28;20025;-71
2021/03/19 06:15:41;;;;;;;55.90;37.00;;;103.30;2227.20;;;;;;5012687;28;20112;-71
2021/03/19 06:18:43;;;;;;;47.28;34.10;;;103.30;2227.20;;;;;;4993623;28;20038;-69
2021/03/19 06:21:10;;;;;;;46.80;32.80;;;128.00;2252.80;;;;;;5012608;28;20068;-69
2021/03/19 06:23:40;;;;;;;47.33;31.93;;;128.00;2252.80;;;;;;5012298;28;20046;-68
2021/03/19 06:26:26;;;;;;;47.87;33.17;;;128.00;2252.80;;;;;;5012392;28;20022;-69
2021/03/19 06:29:13;;;;;;;47.57;32.63;;;128.00;2252.80;;;;;;5012042;28;20387;-72
2021/03/19 06:31:40;;;;;;;73.07;45.17;;;103.30;2227.20;;;;;;5012444;28;20076;-69
2021/03/19 06:34:09;;;;;;;62.30;41.97;;;128.00;2252.80;;;;;;5013510;28;20382;-72
2021/03/19 06:36:53;;;;;;;65.30;40.72;;;128.00;2252.80;;;;;;5016492;28;20037;-68
2021/03/19 06:39:26;;;;;;;61.80;38.77;;;128.10;2252.80;;;;;;5016198;28;20034;-72
2021/03/19 06:42:30;;;;;;;53.47;34.85;;;128.10;2252.80;;;;;;5016261;28;20033;-70
2021/03/19 06:45:20;;;;;;;70.27;40.50;;;128.20;2252.80;;;;;;5016378;28;20053;-72
2021/03/19 06:47:56;;;;;;;109.77;57.47;;;128.20;2252.80;;;;;;5015903;28;20053;-71
2021/03/19 06:50:22;;;;;;;91.03;49.10;;;128.30;2252.80;;;;;;5015817;28;20030;-73
2021/03/19 06:52:48;;;;;;;109.47;55.07;;;128.30;2227.20;;;;;;5016087;28;20030;-71
2021/03/19 06:55:45;;;;;;;96.27;53.43;;;128.40;2227.20;;;;;;5016335;28;20026;-69
2021/03/19 06:58:11;;;;;;;77.73;44.77;;;128.40;2201.60;;;;;;5016077;28;20026;-71
2021/03/19 07:00:47;;;;;;;89.30;51.30;;;128.30;2201.60;;;;;;5015862;28;20081;-72
2021/03/19 07:03:24;;;;;;;102.20;57.57;;;128.40;2201.60;;;;;;5015571;28;20018;-69
2021/03/19 07:05:57;;;;;;;111.25;60.20;;;128.50;2201.60;;;;;;5016276;28;20058;-69
2021/03/19 07:08:29;;;;;;;116.82;63.67;;;128.40;2201.60;;;;;;5015720;28;20028;-68
2021/03/19 07:11:29;;;;;;;108.07;59.95;;;128.50;2201.60;;;;;;5015876;28;20033;-73
2021/03/19 07:14:19;;;;;;;80.90;45.90;;;128.50;2176.00;;;;;;5015882;28;20463;-69
2021/03/19 07:17:01;;;;;;;70.93;41.42;;;128.50;2176.00;;;;;;5015787;28;20386;-72
2021/03/19 07:19:46;;;;;;;57.83;35.87;;;128.50;2176.00;;;;;;5015650;28;20018;-73
2021/03/19 07:22:28;;;;;;;42.43;28.17;;;128.60;2150.40;;;;;;5015632;28;20030;-69
2021/03/19 07:25:12;;;;;;;39.58;24.65;;;128.70;2124.80;;;;;;5015515;28;20363;-69
2021/03/19 07:28:01;;;;;;;31.95;20.83;;;128.70;2099.20;;;;;;5015428;28;20562;-73
2021/03/19 07:30:31;;;;;;;29.50;20.25;;;128.70;2048.00;;;;;;5011685;28;20556;-68
2021/03/19 07:33:15;;;;;;;44.70;27.10;;;128.70;2073.60;;;;;;5014162;28;20026;-69
2021/03/19 07:35:43;;;;;;;39.72;23.77;;;128.80;2099.20;;;;;;5015320;28;20026;-68
2021/03/19 07:38:28;;;;;;;37.93;23.97;;;128.80;2099.20;;;;;;5015338;28;20049;-69
2021/03/19 07:41:20;;;;;;;34.67;21.95;;;128.80;2073.60;;;;;;5015250;28;20021;-72
2021/03/19 07:44:13;;;;;;;39.47;23.63;;;128.80;2073.60;;;;;;5015293;28;20415;-73
2021/03/19 07:47:23;;;;;;;45.80;27.83;;;128.80;2073.60;;;;;;5014615;28;20088;-69
2021/03/19 07:50:04;;;;;;;42.33;25.03;;;128.90;2073.60;;;;;;5013983;28;20104;-68
2021/03/19 07:52:43;;;;;;;48.30;27.30;;;128.90;2073.60;;;;;;5014752;28;20022;-73
2021/03/19 07:55:25;;;;;;;45.55;27.05;;;128.90;2099.20;;;;;;5015005;28;20029;-70
2021/03/19 07:58:29;;;;;;;62.00;40.63;;;153.60;2099.20;;;;;;5014819;28;20073;-73
2021/03/19 08:01:22;;;;;;;52.17;33.85;;;153.60;2124.80;;;;;;5015069;28;20029;-68
2021/03/19 08:04:00;;;;;;;34.90;24.88;;;153.60;2124.80;;;;;;5014871;28;20045;-74
2021/03/19 08:06:33;;;;;;;58.10;40.95;;;153.60;2150.40;;;;;;5014859;28;20479;-71
2021/03/19 08:09:05;;;;;;;56.83;38.67;;;153.60;2176.00;;;;;;5014566;28;20038;-70
2021/03/19 08:11:56;;;;;;;49.03;34.80;;;153.70;2150.40;;;;;;5014875;28;20029;-70
2021/03/19 08:14:43;;;;;;;48.58;32.75;;;153.70;2150.40;;;;;;5014565;28;20475;-69
2021/03/19 08:17:41;;;;;;;55.40;31.45;;;153.80;2124.80;;;;;;5014659;28;20115;-69
2021/03/19 08:20:31;;;;;;;62.70;37.78;;;153.90;2099.20;;;;;;5006862;28;20061;-69
2021/03/19 08:23:11;;;;;;;47.67;33.42;;;154.00;2099.20;;;;;;5014578;28;20026;-76
2021/03/19 08:25:49;;;;;;;49.35;32.50;;;154.00;2048.00;;;;;;5014366;28;20045;-73
2021/03/19 08:28:27;;;;;;;64.65;43.05;;;154.00;2048.00;;;;;;5014519;28;20029;-68
2021/03/19 08:31:16;;;;;;;86.28;43.33;;;154.00;1996.80;;;;;;5014030;28;20025;-73
2021/03/19 08:34:00;;;;;;;121.77;58.00;;;154.10;1971.20;;;;;;5014631;28;20033;-69
2021/03/19 08:36:47;;;;;;;86.85;47.83;;;154.20;1945.60;;;;;;5014023;28;20064;-72
2021/03/19 08:39:32;;;;;;;119.20;56.83;;;154.20;1920.00;;;;;;5014335;28;20105;-69
2021/03/19 08:42:07;;;;;;;122.53;57.80;;;154.30;1920.00;;;;;;5014168;28;20381;-74
2021/03/19 08:44:37;;;;;;;230.80;103.38;;;154.30;1894.40;;;;;;5015691;28;20041;-73
2021/03/19 08:47:32;;;;;;;95.55;47.65;;;154.30;1894.40;;;;;;5013469;28;20065;-68
2021/03/19 08:50:33;;;;;;;46.08;30.17;;;154.40;1868.80;;;;;;5014736;28;20509;-72
2021/03/19 08:53:13;;;;;;;30.65;19.83;;;154.30;1894.40;;;;;;5013138;28;20030;-68
2021/03/19 08:55:41;;;;;;;133.95;73.95;;;154.30;1868.80;;;;;;5014045;28;20385;-70
2021/03/19 08:58:26;;;;;;;375.42;187.48;;;154.30;1894.40;;;;;;5013281;28;20169;-72
2021/03/19 09:00:58;;;;;;;963.03;532.00;;;154.30;1920.00;;;;;;5014838;28;20033;-69
2021/03/19 09:03:42;;;;;;;293.85;194.38;;;154.30;1894.40;;;;;;5013379;28;20490;-69
2021/03/19 09:06:29;;;;;;;92.55;65.22;;;154.30;1868.80;;;;;;5014134;28;20037;-69
2021/03/19 09:09:04;;;;;;;59.75;43.50;;;154.30;1868.80;;;;;;5013421;28;20030;-68
2021/03/19 09:11:36;;;;;;;65.82;42.88;;;154.40;1843.20;;;;;;5013729;28;20109;-70
2021/03/19 09:14:05;;;;;;;51.72;31.60;;;154.50;1868.80;;;;;;5013300;28;20022;-70
2021/03/19 09:16:44;;;;;;;41.45;24.88;;;179.20;1843.20;;;;;;5013569;28;20026;-69
2021/03/19 09:19:43;;;;;;;35.83;22.25;;;179.30;1817.60;;;;;;5013234;28;20026;-69
2021/03/19 09:22:26;;;;;;;31.65;17.40;;;179.30;1792.00;;;;;;5008947;28;20061;-69
2021/03/19 09:25:14;;;;;;;28.55;17.23;;;179.40;1766.40;;;;;;5012839;28;20040;-69
2021/03/19 09:28:10;;;;;;;27.48;19.80;;;179.50;1740.80;;;;;;5013365;28;20065;-73
2021/03/19 09:30:55;;;;;;;22.40;16.55;;;179.50;1715.20;;;;;;5014178;28;20049;-69
2021/03/19 09:33:42;;;;;;;21.90;14.70;;;179.60;1740.80;;;;;;5035392;28;20044;-67
2021/03/19 09:36:47;;;;;;;20.95;14.00;;;179.60;1715.20;;;;;;5032393;28;20175;-70
2021/03/19 09:39:54;;;;;;;21.20;13.60;;;179.60;1689.60;;;;;;5031789;28;20493;-72
2021/03/19 09:42:20;;;;;;;27.02;17.02;;;179.60;1664.00;;;;;;5031657;28;20049;-72
2021/03/19 09:45:02;;;;;;;28.33;19.98;;;179.70;1664.00;;;;;;5043766;28;20013;-73
2021/03/19 09:47:32;;;;;;;37.85;24.40;;;179.70;1638.40;;;;;;5057663;22;20080;-74
2021/03/19 09:50:29;;;;;;;20.80;14.60;;;179.70;1612.80;;;;;;5088450;28;20115;-69
2021/03/19 09:53:06;;;;;;;18.75;14.02;;;179.70;1612.80;;;;;;5075945;28;20485;-70
2021/03/19 09:55:43;;;;;;;22.45;16.80;;;179.70;1587.20;;;;;;5088264;28;20064;-68
2021/03/19 09:58:29;;;;;;;32.78;21.88;;;179.70;1587.20;;;;;;5087450;28;20107;-69
2021/03/19 10:01:13;;;;;;;20.02;12.77;;;179.80;1612.80;;;;;;5086580;28;20103;-70
2021/03/19 10:03:44;;;;;;;;;;;179.80;1638.40;;;;;;5085927;28;20020;-69
2021/03/19 10:06:18;;;;;;;57.47;30.38;;;180.00;1587.20;;;;;;5083347;28;20311;-69
2021/03/19 10:08:45;;;;;;;25.55;16.40;;;180.00;1587.20;;;;;;5083882;28;20069;-70
2021/03/19 10:11:14;;;;;;;15.52;10.65;;;180.10;1561.60;;;;;;5092270;28;20020;-67
2021/03/19 10:13:40;;;;;;;19.60;12.52;;;204.80;1484.80;;;;;;5091908;28;20108;-68
2021/03/19 10:16:06;;;;;;;16.60;10.13;;;204.90;1561.60;;;;;;5092046;28;20060;-70
2021/03/19 10:18:43;;;;;;;16.83;11.25;;;204.90;1536.00;;;;;;5092278;28;20031;-67
2021/03/19 10:21:11;;;;;;;14.98;10.02;;;205.00;1536.00;;;;;;5091810;28;20066;-67
2021/03/19 10:23:58;;;;;;;14.10;10.68;;;205.10;1536.00;;;;;;5091972;28;20024;-69
2021/03/19 10:26:28;;;;;;;22.00;14.48;;;205.10;1484.80;;;;;;5091865;28;20020;-67
2021/03/19 10:29:23;;;;;;;20.45;12.80;;;205.20;1459.20;;;;;;5092130;28;20016;-68
2021/03/19 10:31:52;;;;;;;20.45;11.25;;;205.20;1408.00;;;;;;5091917;28;20024;-66
2021/03/19 10:34:36;;;;;;;194.10;62.97;;;205.10;1433.60;;;;;;5092066;28;20020;-67
2021/03/19 10:37:19;;;;;;;32.80;16.00;;;205.20;1510.40;;;;;;5091297;28;20099;-67
2021/03/19 10:39:54;;;;;;;43.35;21.52;;;205.20;1484.80;;;;;;5091545;28;20111;-68
2021/03/19 10:42:28;;;;;;;32.83;16.08;;;205.30;1459.20;;;;;;5091008;28;20171;-67
2021/03/19 10:45:16;;;;;;;18.77;11.50;;;205.60;1433.60;;;;;;5090923;28;20095;-67
2021/03/19 10:47:47;;;;;;;34.45;16.30;;;205.70;1459.20;;;;;;5090762;28;20051;-66
2021/03/19 10:50:23;;;;;;;21.17;12.13;;;230.40;1382.40;;;;;;5092401;28;20181;-66
2021/03/19 10:53:25;;;;;;;20.15;11.32;;;230.40;1331.20;;;;;;5091942;28;20093;-66
2021/03/19 10:55:52;;;;;;;31.83;16.70;;;230.50;1356.80;;;;;;5089986;28;20091;-69
2021/03/19 10:58:30;;;;;;;27.95;12.07;;;230.60;1382.40;;;;;;5089016;28;20052;-67
2021/03/19 11:00:57;;;;;;;14.75;9.88;;;230.60;1382.40;;;;;;5082349;28;20052;-72
2021/03/19 11:03:45;;;;;;;15.20;8.80;;;230.60;1433.60;;;;;;5078004;28;20024;-73
2021/03/19 11:06:34;;;;;;;21.13;10.57;;;230.70;1356.80;;;;;;5071825;28;20021;-71
2021/03/19 11:09:18;;;;;;;14.02;9.85;;;230.80;1356.80;;;;;;5071501;28;20116;-68
2021/03/19 11:11:45;;;;;;;;;;;230.70;1305.60;;;;;;5072125;28;20078;-67
2021/03/19 11:14:13;;;;;;;31.58;15.27;;;230.80;1305.60;;;;;;5071469;28;19970;-67
2021/03/19 11:16:46;;;;;;;13.30;9.48;;;230.90;1382.40;;;;;;5071485;28;20021;-67
2021/03/19 11:19:21;;;;;;;21.93;11.90;;;230.90;1356.80;;;;;;5071826;28;20033;-67
2021/03/19 11:22:04;;;;;;;23.15;12.48;;;231.00;1356.80;;;;;;5075008;28;20252;-67
2021/03/19 11:24:36;;;;;;;23.77;15.90;;;231.00;1305.60;;;;;;5073960;28;20032;-66
2021/03/19 11:27:23;;;;;;;19.85;12.50;;;230.80;1331.20;;;;;;5074889;28;20089;-66
2021/03/19 11:29:51;;;;;;;21.20;12.95;;;230.90;1305.60;;;;;;5075475;28;20058;-67
2021/03/19 11:32:18;;;;;;;20.05;13.15;;;230.70;1331.20;;;;;;5074841;28;20541;-67
2021/03/19 11:34:53;;;;;;;22.02;12.50;;;230.70;1331.20;;;;;;5074817;28;20377;-67
2021/03/19 11:37:19;;;;;;;23.35;12.23;;;230.70;1356.80;;;;;;5074754;28;20112;-69
2021/03/19 11:39:56;;;;;;;43.38;24.63;;;230.70;1280.00;;;;;;5084938;28;20111;-67
2021/03/19 11:42:31;;;;;;;36.65;19.73;;;230.60;1305.60;;;;;;5083974;28;20115;-67
2021/03/19 11:45:08;;;;;;;35.22;17.33;;;230.70;1331.20;;;;;;5082500;28;20024;-67
2021/03/19 11:47:38;;;;;;;23.05;14.35;;;230.70;1305.60;;;;;;5090014;28;20562;-68
2021/03/19 11:50:33;;;;;;;16.92;10.52;;;230.70;1331.20;;;;;;5082926;28;20037;-67
2021/03/19 11:53:05;;;;;;;;;;;230.70;1356.80;;;;;;5084106;28;20024;-68
2021/03/19 11:55:41;;;;;;;26.45;18.17;;;230.70;1280.00;;;;;;5083365;28;19904;-69
2021/03/19 11:58:09;;;;;;;170.18;84.60;;;230.70;1331.20;;;;;;5083267;28;20019;-67
2021/03/19 12:00:37;;;;;;;36.63;20.27;;;230.80;1331.20;;;;;;5082342;28;20051;-68
2021/03/19 12:03:12;;;;;;;39.80;19.65;;;230.90;1305.60;;;;;;5082649;28;20469;-68
2021/03/19 12:05:39;;;;;;;17.65;10.93;;;230.90;1331.20;;;;;;5081730;28;20056;-67
2021/03/19 12:08:05;;;;;;;53.90;35.50;;;230.80;1280.00;;;;;;5083754;28;20364;-67
2021/03/19 12:10:31;;;;;;;45.40;28.55;;;230.90;1305.60;;;;;;5083189;28;20511;-67
2021/03/19 12:13:00;;;;;;;41.17;21.77;;;230.90;1305.60;;;;;;5082140;28;20063;-66
2021/03/19 12:15:28;;;;;;;21.17;14.38;;;230.90;1305.60;;;;;;5083202;28;20020;-67
2021/03/19 12:17:54;;;;;;;25.25;13.80;;;231.00;1280.00;;;;;;5083808;28;20413;-66
2021/03/19 12:20:20;;;;;;;23.95;15.25;;;231.00;1280.00;;;;;;5082008;28;20063;-68
2021/03/19 12:22:46;;;;;;;50.45;22.60;;;231.10;1280.00;;;;;;5083291;28;20016;-68
2021/03/19 12:25:20;;;;;;;18.70;10.80;;;231.00;1280.00;;;;;;5084591;28;20027;-67
2021/03/19 12:27:46;;;;;;;18.95;11.15;;;230.90;1254.40;;;;;;5094004;28;20020;-66
2021/03/19 12:30:17;;;;;;;17.27;12.98;;;231.00;1228.80;;;;;;5094013;28;20086;-67
2021/03/19 12:32:42;;;;;;;70.68;62.83;;;230.90;1228.80;;;;;;5092973;28;20381;-67
2021/03/19 12:35:09;;;;;;;19.63;17.52;;;230.90;1254.40;;;;;;5092422;28;20085;-68
2021/03/19 12:37:35;;;;;;;14.88;10.27;;;230.90;1280.00;;;;;;5092623;28;20020;-67
2021/03/19 12:40:02;;;;;;;11.95;8.75;;;231.00;1254.40;;;;;;5094109;28;20028;-68